Time;durP1;ratioP1;P1;durP2;ratioP2;P2;SDS_P1;SDS_P2;PMS_P1;PMS_P2;Temp;Humidity;BMP_temperature;BMP_pressure;BME280_temperature;BME280_humidity;BME280_pressure;Samples;Min_cycle;Max_cycle;Signal;HPM_P1;HPM_P2
2021/06/17 00:01:05;;;;;;;8.47;7.00;;;19.30;99.90;;;;;;4954021;28;20222;-82
2021/06/17 00:03:32;;;;;;;7.80;7.10;;;19.30;99.90;;;;;;4953788;28;20204;-81
2021/06/17 00:05:59;;;;;;;7.00;6.50;;;19.20;99.90;;;;;;4954920;28;20226;-81
2021/06/17 00:08:26;;;;;;;7.53;6.93;;;19.20;99.90;;;;;;4954926;28;20574;-82
2021/06/17 00:10:54;;;;;;;6.17;5.57;;;19.20;99.90;;;;;;4945809;28;20202;-81
2021/06/17 00:13:26;;;;;;;6.93;6.23;;;19.10;99.90;;;;;;4954882;29;20688;-82
2021/06/17 00:15:57;;;;;;;7.57;6.90;;;19.10;99.90;;;;;;4953177;28;20234;-81
2021/06/17 00:18:24;;;;;;;6.23;5.50;;;19.00;99.90;;;;;;4953585;28;20622;-82
2021/06/17 00:20:51;;;;;;;6.00;5.40;;;18.90;99.90;;;;;;4954699;28;20202;-81
2021/06/17 00:23:18;;;;;;;5.40;4.60;;;18.90;99.90;;;;;;4954872;28;20273;-82
2021/06/17 00:25:46;;;;;;;5.63;5.07;;;18.90;99.90;;;;;;4954386;28;20242;-82
2021/06/17 00:28:12;;;;;;;5.70;5.20;;;18.90;99.90;;;;;;4954632;28;20213;-81
2021/06/17 00:30:40;;;;;;;5.70;5.10;;;18.80;99.90;;;;;;4953329;28;20213;-81
2021/06/17 00:33:08;;;;;;;6.00;5.50;;;18.80;99.90;;;;;;4953421;28;20629;-83
2021/06/17 00:35:35;;;;;;;6.00;5.50;;;18.80;99.90;;;;;;4953261;28;20229;-83
2021/06/17 00:38:03;;;;;;;5.63;5.10;;;18.80;99.90;;;;;;4954829;28;20223;-81
2021/06/17 00:40:30;;;;;;;7.00;6.00;;;18.70;99.90;;;;;;4953250;29;20685;-81
2021/06/17 00:42:58;;;;;;;6.83;6.23;;;18.70;99.90;;;;;;4953234;28;20230;-81
2021/06/17 00:45:27;;;;;;;7.80;7.10;;;18.60;99.90;;;;;;4952981;28;20691;-81
2021/06/17 00:47:53;;;;;;;8.87;7.40;;;18.60;99.90;;;;;;4953111;28;20209;-81
2021/06/17 00:50:23;;;;;;;8.47;7.67;;;18.60;99.90;;;;;;4953077;29;20207;-81
2021/06/17 00:52:50;;;;;;;7.63;6.97;;;18.60;99.90;;;;;;4953073;28;20200;-81
2021/06/17 00:55:17;;;;;;;8.20;7.47;;;18.60;99.90;;;;;;4952735;28;20562;-82
2021/06/17 00:57:44;;;;;;;7.70;7.10;;;18.60;99.90;;;;;;4952881;28;20199;-82
2021/06/17 01:00:14;;;;;;;8.20;7.50;;;18.50;99.90;;;;;;4952984;28;20213;-82
2021/06/17 01:02:41;;;;;;;8.10;7.50;;;18.50;99.90;;;;;;4952760;29;20271;-82
2021/06/17 01:05:10;;;;;;;7.90;7.27;;;18.40;99.90;;;;;;4954062;28;20212;-81
2021/06/17 01:07:44;;;;;;;8.00;7.30;;;18.40;99.90;;;;;;4954213;28;20197;-81
2021/06/17 01:10:17;;;;;;;7.77;7.07;;;18.40;99.90;;;;;;4960893;29;20195;-82
2021/06/17 01:12:54;;;;;;;8.30;7.70;;;18.30;99.90;;;;;;4953594;28;20225;-79
2021/06/17 01:15:22;;;;;;;7.70;7.00;;;18.30;99.90;;;;;;4952579;28;20203;-80
2021/06/17 01:17:54;;;;;;;7.60;7.00;;;18.30;99.90;;;;;;4946139;28;20196;-79
2021/06/17 01:20:27;;;;;;;7.80;7.20;;;18.20;99.90;;;;;;4953721;28;20200;-81
2021/06/17 01:23:09;;;;;;;8.20;7.40;;;18.20;99.90;;;;;;4952810;28;20247;-79
2021/06/17 01:25:59;;;;;;;7.63;6.93;;;18.10;99.90;;;;;;4952554;28;20223;-79
2021/06/17 01:28:28;;;;;;;7.93;7.33;;;18.10;99.90;;;;;;4952760;28;20207;-80
2021/06/17 01:30:59;;;;;;;8.23;7.40;;;18.10;99.90;;;;;;4953983;28;20202;-79
2021/06/17 01:33:30;;;;;;;7.70;7.10;;;18.00;99.90;;;;;;4954132;29;20202;-79
2021/06/17 01:36:01;;;;;;;7.43;6.83;;;18.00;99.90;;;;;;4953779;28;20301;-78
2021/06/17 01:38:28;;;;;;;7.70;7.00;;;18.00;99.90;;;;;;4953300;28;20206;-78
2021/06/17 01:40:57;;;;;;;8.10;7.17;;;17.90;99.90;;;;;;4952421;28;20616;-79
2021/06/17 01:43:24;;;;;;;7.33;6.73;;;17.90;99.90;;;;;;4951942;29;20280;-78
2021/06/17 01:45:53;;;;;;;7.83;7.23;;;17.90;99.90;;;;;;4952920;28;20244;-78
2021/06/17 01:48:21;;;;;;;7.83;7.13;;;17.80;99.90;;;;;;4953397;28;20662;-79
2021/06/17 01:50:49;;;;;;;7.87;7.20;;;17.70;99.90;;;;;;4952825;28;20201;-79
2021/06/17 01:53:18;;;;;;;8.13;7.40;;;17.70;99.90;;;;;;4953540;28;20195;-79
2021/06/17 01:55:46;;;;;;;8.13;7.47;;;17.60;99.90;;;;;;4953242;28;20219;-80
2021/06/17 01:58:15;;;;;;;8.00;7.40;;;17.60;99.90;;;;;;4953546;28;20202;-79
2021/06/17 02:00:44;;;;;;;8.10;7.40;;;17.60;99.90;;;;;;4952241;29;20220;-79
2021/06/17 02:03:15;;;;;;;8.47;7.70;;;17.50;99.90;;;;;;4952340;28;20220;-79
2021/06/17 02:05:43;;;;;;;7.50;6.90;;;17.50;99.90;;;;;;4953819;28;20233;-78
2021/06/17 02:08:11;;;;;;;8.27;7.67;;;17.50;99.90;;;;;;4951732;28;20215;-79
2021/06/17 02:10:40;;;;;;;7.43;6.93;;;17.50;99.90;;;;;;4953246;28;20206;-78
2021/06/17 02:13:10;;;;;;;8.67;7.97;;;17.50;99.90;;;;;;4957160;28;20627;-79
2021/06/17 02:15:38;;;;;;;8.23;7.53;;;17.50;99.90;;;;;;4955534;28;20243;-79
2021/06/17 02:18:08;;;;;;;9.33;8.27;;;17.40;99.90;;;;;;4956735;28;20232;-78
2021/06/17 02:20:38;;;;;;;8.73;7.80;;;17.40;99.90;;;;;;4956577;29;20575;-78
2021/06/17 02:23:16;;;;;;;8.80;8.00;;;17.40;99.90;;;;;;4956427;28;20257;-79
2021/06/17 02:25:45;;;;;;;7.93;7.23;;;17.40;99.90;;;;;;4955371;28;20218;-79
2021/06/17 02:28:16;;;;;;;8.03;7.33;;;17.30;99.90;;;;;;4956502;28;20671;-79
2021/06/17 02:30:45;;;;;;;8.57;7.97;;;17.30;99.90;;;;;;4956630;28;20202;-78
2021/06/17 02:33:14;;;;;;;7.83;7.23;;;17.30;99.90;;;;;;4956016;28;20206;-79
2021/06/17 02:35:45;;;;;;;8.70;8.00;;;17.30;99.90;;;;;;4956529;28;20245;-78
2021/06/17 02:38:16;;;;;;;8.07;7.37;;;17.30;99.90;;;;;;4955359;28;20656;-78
2021/06/17 02:40:45;;;;;;;8.90;8.10;;;17.30;99.90;;;;;;4955858;29;20211;-78
2021/06/17 02:43:17;;;;;;;8.43;7.73;;;17.20;99.90;;;;;;4959462;28;20219;-78
2021/06/17 02:45:46;;;;;;;8.70;8.00;;;17.20;99.90;;;;;;4956458;28;20707;-77
2021/06/17 02:48:14;;;;;;;9.47;8.57;;;17.10;99.90;;;;;;4954352;28;20205;-77
2021/06/17 02:50:42;;;;;;;8.03;7.30;;;17.10;99.90;;;;;;4958366;28;20218;-77
2021/06/17 02:53:12;;;;;;;7.93;7.23;;;17.00;99.90;;;;;;4954921;28;20199;-78
2021/06/17 02:55:40;;;;;;;8.87;8.10;;;17.00;99.90;;;;;;4954187;29;20647;-76
2021/06/17 02:58:26;;;;;;;7.80;7.17;;;17.00;99.90;;;;;;4951681;29;20208;-77
2021/06/17 03:00:56;;;;;;;8.67;7.83;;;17.00;99.90;;;;;;4954427;29;20206;-78
2021/06/17 03:03:29;;;;;;;8.90;8.20;;;17.00;99.90;;;;;;4955392;29;20773;-77
2021/06/17 03:06:03;;;;;;;9.13;8.23;;;17.00;99.90;;;;;;4949240;29;20719;-77
2021/06/17 03:08:35;;;;;;;8.33;7.63;;;17.00;99.90;;;;;;4966872;28;20617;-77
2021/06/17 03:11:09;;;;;;;9.10;8.40;;;16.90;99.90;;;;;;4954456;29;20216;-78
2021/06/17 03:13:40;;;;;;;8.87;8.13;;;16.90;99.90;;;;;;4954354;28;20225;-78
2021/06/17 03:16:08;;;;;;;8.83;8.03;;;16.90;99.90;;;;;;4955258;28;20309;-78
2021/06/17 03:18:37;;;;;;;9.00;8.20;;;17.00;99.90;;;;;;4955479;28;20205;-78
2021/06/17 03:21:09;;;;;;;8.10;7.50;;;17.00;99.90;;;;;;4954345;28;20211;-78
2021/06/17 03:23:40;;;;;;;9.03;8.17;;;17.00;99.90;;;;;;4955475;29;20861;-78
2021/06/17 03:26:10;;;;;;;8.77;8.07;;;17.00;99.90;;;;;;4953789;28;20233;-78
2021/06/17 03:28:39;;;;;;;8.97;8.17;;;17.00;99.90;;;;;;4953311;28;20225;-78
2021/06/17 03:31:08;;;;;;;8.57;7.87;;;17.00;99.90;;;;;;4953746;28;20697;-79
2021/06/17 03:33:38;;;;;;;9.57;8.67;;;17.00;99.90;;;;;;4952198;28;20210;-79
2021/06/17 03:36:09;;;;;;;9.37;8.50;;;17.00;99.90;;;;;;4952507;28;20273;-79
2021/06/17 03:38:37;;;;;;;9.17;8.37;;;17.00;99.90;;;;;;4948714;28;20201;-79
2021/06/17 03:41:05;;;;;;;9.00;8.27;;;17.10;99.90;;;;;;4953029;28;20203;-79
2021/06/17 03:43:33;;;;;;;9.27;8.47;;;17.20;99.90;;;;;;4953685;28;20200;-79
2021/06/17 03:46:01;;;;;;;9.63;8.73;;;17.20;99.90;;;;;;4954116;28;20223;-77
2021/06/17 03:48:30;;;;;;;8.87;8.07;;;17.20;99.90;;;;;;4953643;29;20219;-79
2021/06/17 03:50:59;;;;;;;9.10;8.40;;;17.20;99.90;;;;;;4953612;28;20199;-79
2021/06/17 03:53:31;;;;;;;9.37;8.57;;;17.20;99.90;;;;;;4953482;28;20248;-81
2021/06/17 03:55:59;;;;;;;9.80;8.90;;;17.30;99.90;;;;;;4958390;28;20220;-79
2021/06/17 03:58:27;;;;;;;10.67;9.67;;;17.30;99.90;;;;;;4956350;28;20219;-78
2021/06/17 04:00:56;;;;;;;9.43;8.63;;;17.30;99.90;;;;;;4953477;28;20294;-79
2021/06/17 04:03:29;;;;;;;9.30;8.50;;;17.40;99.90;;;;;;4953857;28;20204;-78
2021/06/17 04:06:00;;;;;;;9.30;8.50;;;17.50;99.90;;;;;;4953764;28;20228;-78
2021/06/17 04:08:32;;;;;;;10.07;9.27;;;17.60;99.90;;;;;;4952976;28;20627;-78
2021/06/17 04:11:02;;;;;;;9.60;8.80;;;17.70;99.90;;;;;;4953607;28;20207;-78
2021/06/17 04:13:32;;;;;;;9.73;8.93;;;17.80;99.90;;;;;;4953536;28;20230;-78
2021/06/17 04:16:00;;;;;;;9.70;8.90;;;17.90;99.90;;;;;;4953427;28;20773;-78
2021/06/17 04:18:31;;;;;;;9.10;8.40;;;18.00;99.90;;;;;;4953512;28;20274;-77
2021/06/17 04:21:01;;;;;;;9.50;8.70;;;18.10;99.90;;;;;;4953517;28;20581;-79
2021/06/17 04:23:31;;;;;;;10.20;9.30;;;18.20;99.90;;;;;;4954482;29;20204;-79
2021/06/17 04:25:59;;;;;;;9.37;8.47;;;18.30;99.90;;;;;;4954203;28;20223;-79
2021/06/17 04:28:28;;;;;;;8.70;8.10;;;18.40;99.90;;;;;;4953430;28;20200;-79
2021/06/17 04:30:57;;;;;;;7.90;7.20;;;18.40;99.90;;;;;;4953259;28;20691;-79
2021/06/17 04:33:25;;;;;;;7.40;6.70;;;18.50;99.90;;;;;;4953316;28;20311;-79
2021/06/17 04:35:55;;;;;;;8.30;7.70;;;18.70;99.90;;;;;;4954194;28;20271;-80
2021/06/17 04:38:22;;;;;;;8.60;7.90;;;18.80;99.90;;;;;;4953896;28;20208;-79
2021/06/17 04:40:51;;;;;;;7.00;6.40;;;19.00;99.90;;;;;;4953280;29;20619;-79
2021/06/17 04:43:22;;;;;;;7.63;6.93;;;19.10;99.90;;;;;;4953211;29;20547;-79
2021/06/17 04:45:51;;;;;;;7.20;6.60;;;19.20;99.90;;;;;;4953844;28;20234;-79
2021/06/17 04:48:20;;;;;;;7.80;7.20;;;19.30;99.90;;;;;;4952803;28;20198;-79
2021/06/17 04:51:04;;;;;;;7.03;6.43;;;19.60;99.90;;;;;;4968691;28;20261;-79
2021/06/17 04:55:12;;;;;;;5.60;4.50;;;20.40;99.90;;;;;;4953680;28;20254;-80
2021/06/17 04:58:14;;;;;;;5.23;4.73;;;20.90;99.90;;;;;;4936465;28;20648;-80
2021/06/17 05:15:58;;;;;;;6.50;5.60;;;21.50;99.90;;;;;;4954189;28;20237;-82
2021/06/17 05:18:33;;;;;;;5.23;3.60;;;21.80;99.90;;;;;;4939682;29;20206;-82
2021/06/17 05:21:13;;;;;;;4.57;4.00;;;22.00;99.90;;;;;;4956242;28;20217;-82
2021/06/17 05:27:26;;;;;;;4.43;3.57;;;22.20;99.90;;;;;;4949446;28;20222;-82
2021/06/17 05:33:50;;;;;;;4.90;3.70;;;22.20;99.90;;;;;;4931013;29;20222;-82
2021/06/17 05:41:10;;;;;;;6.20;5.70;;;22.90;99.90;;;;;;4937174;28;20230;-82
2021/06/17 05:44:00;;;;;;;6.37;5.77;;;23.90;99.90;;;;;;4951702;28;20194;-82
2021/06/17 05:46:53;;;;;;;6.23;5.73;;;25.10;99.90;;;;;;4954857;28;20257;-82
2021/06/17 05:49:24;;;;;;;6.70;6.10;;;26.00;99.90;;;;;;4956266;28;20197;-82
2021/06/17 05:51:54;;;;;;;6.33;5.83;;;26.80;99.90;;;;;;4957515;28;20195;-82
2021/06/17 05:54:28;;;;;;;6.37;5.83;;;27.50;99.90;;;;;;4958019;29;20248;-82
2021/06/17 05:57:12;;;;;;;6.47;5.97;;;27.70;99.90;;;;;;4943147;29;20277;-82
2021/06/17 05:59:42;;;;;;;6.60;6.00;;;28.00;99.90;;;;;;4957385;29;20207;-83
2021/06/17 06:02:11;;;;;;;6.40;5.80;;;28.50;99.90;;;;;;4953586;29;20202;-82
2021/06/17 06:04:58;;;;;;;5.73;5.23;;;28.60;99.90;;;;;;4954443;28;20191;-83
2021/06/17 06:07:32;;;;;;;6.73;6.03;;;28.90;99.90;;;;;;4955044;28;20717;-83
2021/06/17 06:10:06;;;;;;;6.10;5.60;;;28.80;99.90;;;;;;4959372;28;20699;-83
2021/06/17 06:12:41;;;;;;;6.77;6.10;;;29.00;99.90;;;;;;4957698;28;20713;-82
2021/06/17 06:15:32;;;;;;;6.97;5.63;;;29.30;99.90;;;;;;4949806;28;20219;-82
2021/06/17 06:21:13;;;;;;;6.20;5.40;;;29.70;99.90;;;;;;4948632;28;20192;-82
2021/06/17 06:23:40;;;;;;;6.10;5.50;;;30.10;99.90;;;;;;4957331;28;20191;-82
2021/06/17 06:26:07;;;;;;;6.33;5.53;;;30.20;99.90;;;;;;4951619;28;20250;-83
2021/06/17 06:28:34;;;;;;;6.90;6.23;;;30.30;99.90;;;;;;4954534;28;20199;-82
2021/06/17 06:31:01;;;;;;;7.03;5.73;;;30.40;99.90;;;;;;4952311;29;20198;-81
2021/06/17 06:33:28;;;;;;;8.10;6.20;;;30.40;99.90;;;;;;4950241;28;20223;-83
2021/06/17 06:35:54;;;;;;;6.93;6.17;;;30.30;99.60;;;;;;4948077;28;20227;-82
2021/06/17 06:38:23;;;;;;;6.80;6.20;;;30.30;99.30;;;;;;4944405;28;20222;-82
2021/06/17 06:40:50;;;;;;;6.37;5.80;;;30.40;98.80;;;;;;4956451;29;20210;-82
2021/06/17 06:43:17;;;;;;;6.73;5.60;;;30.40;99.70;;;;;;4952664;28;20195;-83
2021/06/17 06:45:44;;;;;;;6.40;5.80;;;30.60;98.70;;;;;;4954544;29;20305;-82
2021/06/17 06:48:11;;;;;;;6.57;5.97;;;30.50;98.90;;;;;;4951574;29;20581;-82
2021/06/17 06:50:38;;;;;;;6.23;5.67;;;30.80;98.00;;;;;;4950601;28;20347;-82
2021/06/17 06:53:11;;;;;;;6.33;5.80;;;30.50;98.10;;;;;;4949639;28;20259;-82
2021/06/17 06:55:39;;;;;;;6.47;5.87;;;30.60;98.60;;;;;;4956235;28;20362;-82
2021/06/17 06:58:06;;;;;;;6.60;6.00;;;30.80;98.30;;;;;;4951333;28;20214;-82
2021/06/17 07:00:33;;;;;;;6.67;6.07;;;31.00;96.90;;;;;;4946790;28;20214;-83
2021/06/17 07:03:00;;;;;;;6.17;5.60;;;31.20;97.00;;;;;;4951693;28;20203;-81
2021/06/17 07:05:27;;;;;;;6.67;6.10;;;31.30;95.80;;;;;;4948052;28;20214;-82
2021/06/17 07:07:54;;;;;;;7.20;6.50;;;31.40;94.80;;;;;;4954207;28;20187;-82
2021/06/17 07:10:21;;;;;;;6.80;6.10;;;31.00;94.80;;;;;;4952550;29;20599;-82
2021/06/17 07:12:49;;;;;;;6.80;6.10;;;30.90;94.60;;;;;;4947351;28;20195;-82
2021/06/17 07:15:17;;;;;;;6.03;5.53;;;31.20;95.50;;;;;;4948507;28;20221;-82
2021/06/17 07:17:44;;;;;;;5.80;5.27;;;31.30;94.40;;;;;;4948373;28;20238;-82
2021/06/17 07:20:11;;;;;;;5.80;5.33;;;31.20;95.50;;;;;;4948997;28;20214;-81
2021/06/17 07:22:38;;;;;;;6.40;5.80;;;31.60;95.20;;;;;;4951670;28;20673;-82
2021/06/17 07:25:06;;;;;;;5.70;5.30;;;31.80;93.90;;;;;;4948942;28;20198;-82
2021/06/17 07:27:32;;;;;;;5.83;5.23;;;31.90;92.90;;;;;;4945698;29;20289;-81
2021/06/17 07:30:01;;;;;;;5.70;5.20;;;32.10;93.00;;;;;;4951882;28;20218;-82
2021/06/17 07:32:31;;;;;;;6.33;5.37;;;32.40;92.80;;;;;;4950152;28;20234;-82
2021/06/17 07:35:07;;;;;;;5.33;4.93;;;32.40;92.00;;;;;;4954456;28;20713;-82
2021/06/17 07:37:47;;;;;;;5.60;5.07;;;32.00;91.50;;;;;;4949493;29;20238;-83
2021/06/17 07:40:25;;;;;;;5.90;5.40;;;32.30;91.90;;;;;;4954926;28;20640;-81
2021/06/17 07:43:09;;;;;;;6.57;5.13;;;32.40;91.60;;;;;;4955880;28;20281;-83
2021/06/17 07:45:47;;;;;;;5.43;4.93;;;32.70;91.20;;;;;;4954441;28;20218;-82
2021/06/17 07:48:22;;;;;;;5.70;5.10;;;32.70;91.10;;;;;;4955754;28;20199;-82
2021/06/17 07:51:01;;;;;;;5.63;5.20;;;32.70;91.50;;;;;;4951280;28;20210;-81
2021/06/17 07:53:30;;;;;;;9.70;5.63;;;32.90;90.50;;;;;;4955822;29;20242;-80
2021/06/17 07:56:07;;;;;;;6.43;5.33;;;32.90;89.90;;;;;;4942254;28;20234;-82
2021/06/17 07:58:43;;;;;;;5.53;5.07;;;32.60;90.80;;;;;;4938895;28;20638;-82
2021/06/17 08:01:20;;;;;;;7.20;5.33;;;32.90;91.70;;;;;;4950128;28;20297;-82
2021/06/17 08:03:54;;;;;;;7.22;5.72;;;33.10;90.60;;;;;;4944708;28;20315;-82
2021/06/17 08:06:50;;;;;;;9.05;5.28;;;32.90;90.80;;;;;;4936248;28;20215;-82
2021/06/17 08:09:22;;;;;;;5.97;5.47;;;33.20;90.90;;;;;;4942378;29;20229;-81
2021/06/17 08:11:59;;;;;;;5.70;5.30;;;33.10;89.60;;;;;;4938131;28;20218;-81
2021/06/17 08:14:30;;;;;;;6.15;5.65;;;33.30;89.70;;;;;;4953831;28;20222;-81
2021/06/17 08:17:11;;;;;;;6.88;5.30;;;33.40;88.40;;;;;;4953524;28;20222;-81
2021/06/17 08:19:46;;;;;;;5.97;5.40;;;33.40;88.80;;;;;;4953868;29;20194;-82
2021/06/17 08:22:18;;;;;;;6.50;5.65;;;33.50;90.20;;;;;;4951704;29;20225;-82
2021/06/17 08:24:50;;;;;;;6.53;5.68;;;33.70;88.80;;;;;;4948648;28;20285;-82
2021/06/17 08:27:21;;;;;;;6.35;5.75;;;34.10;88.60;;;;;;4943239;28;20279;-83
2021/06/17 08:29:53;;;;;;;6.45;5.80;;;34.00;89.70;;;;;;4943318;28;20202;-82
2021/06/17 08:32:27;;;;;;;5.68;5.28;;;34.00;89.10;;;;;;4951820;28;20208;-83
2021/06/17 08:34:57;;;;;;;6.03;5.22;;;33.50;87.70;;;;;;4953160;28;20356;-83
2021/06/17 08:37:27;;;;;;;6.35;5.85;;;33.40;89.10;;;;;;4978319;28;20293;-82
2021/06/17 08:39:58;;;;;;;7.70;6.07;;;33.50;89.40;;;;;;4959307;28;20203;-83
2021/06/17 08:42:31;;;;;;;6.20;5.65;;;32.90;90.10;;;;;;4945026;28;20270;-82
2021/06/17 08:45:12;;;;;;;6.00;5.50;;;32.80;90.90;;;;;;4950010;28;20223;-82
2021/06/17 08:47:45;;;;;;;6.60;6.00;;;33.10;90.80;;;;;;4958574;28;20210;-82
2021/06/17 08:50:18;;;;;;;6.22;5.72;;;33.00;91.30;;;;;;4951939;29;20309;-82
2021/06/17 08:52:51;;;;;;;6.85;6.18;;;33.40;90.40;;;;;;4950379;28;20198;-82
2021/06/17 08:55:22;;;;;;;6.90;6.25;;;33.50;90.30;;;;;;4956861;28;20313;-82
2021/06/17 08:57:58;;;;;;;6.47;5.70;;;33.60;90.40;;;;;;4957824;28;20225;-82
2021/06/17 09:00:39;;;;;;;6.57;5.97;;;33.40;90.90;;;;;;4957140;29;20661;-82
2021/06/17 09:03:15;;;;;;;6.20;5.65;;;33.70;91.20;;;;;;4940172;28;20203;-82
2021/06/17 09:05:46;;;;;;;6.60;6.10;;;34.00;90.90;;;;;;4951591;28;20590;-82
2021/06/17 09:08:15;;;;;;;6.75;6.05;;;34.30;90.70;;;;;;4943058;28;20654;-82
2021/06/17 09:10:43;;;;;;;6.78;6.18;;;34.50;91.20;;;;;;4947769;28;20206;-82
2021/06/17 09:13:14;;;;;;;6.32;5.82;;;34.60;91.10;;;;;;4948107;28;20199;-82
2021/06/17 09:15:44;;;;;;;6.45;5.85;;;34.80;90.50;;;;;;4949386;28;20322;-82
2021/06/17 09:18:27;;;;;;;9.35;6.00;;;35.20;90.10;;;;;;4947777;28;20199;-82
2021/06/17 09:20:58;;;;;;;6.20;5.70;;;35.10;89.60;;;;;;4937131;29;20195;-82
2021/06/17 09:23:34;;;;;;;6.53;5.88;;;35.10;90.50;;;;;;4944607;28;20209;-82
2021/06/17 09:26:09;;;;;;;6.50;5.63;;;35.30;88.10;;;;;;4943178;28;20434;-82
2021/06/17 09:28:46;;;;;;;6.43;5.88;;;35.60;88.20;;;;;;4940891;29;20795;-82
2021/06/17 09:31:27;;;;;;;6.07;5.60;;;35.70;87.60;;;;;;4949774;28;20199;-82
2021/06/17 09:34:06;;;;;;;6.40;5.90;;;35.60;87.70;;;;;;4951288;28;20233;-82
2021/06/17 09:36:39;;;;;;;6.00;5.50;;;35.40;86.70;;;;;;4941555;29;20222;-82
2021/06/17 09:39:21;;;;;;;6.25;5.75;;;35.20;84.40;;;;;;4946939;28;20250;-82
2021/06/17 09:42:11;;;;;;;6.18;5.68;;;34.60;86.20;;;;;;4935856;28;20675;-82
2021/06/17 09:44:42;;;;;;;5.72;5.22;;;34.40;86.60;;;;;;4941284;29;20199;-82
2021/06/17 09:47:18;;;;;;;6.10;5.10;;;34.70;87.30;;;;;;4942502;28;20230;-82
2021/06/17 09:49:51;;;;;;;6.18;5.68;;;35.00;85.70;;;;;;4954174;28;20226;-82
2021/06/17 09:52:40;;;;;;;5.88;5.38;;;35.20;85.70;;;;;;4954504;29;20253;-81
2021/06/17 09:55:41;;;;;;;5.90;5.40;;;35.10;82.60;;;;;;4943875;29;20900;-82
2021/06/17 09:58:49;;;;;;;5.68;5.20;;;35.00;83.40;;;;;;4947575;29;20218;-82
2021/06/17 10:01:37;;;;;;;5.70;5.30;;;35.10;80.00;;;;;;4949321;28;20191;-82
2021/06/17 10:04:06;;;;;;;6.07;5.50;;;35.20;80.70;;;;;;4951338;28;20248;-81
2021/06/17 10:06:38;;;;;;;7.80;5.32;;;35.60;78.30;;;;;;4954280;28;20233;-82
2021/06/17 10:09:10;;;;;;;5.70;5.30;;;35.80;76.90;;;;;;4953318;28;20211;-82
2021/06/17 10:11:41;;;;;;;5.70;5.30;;;36.00;76.50;;;;;;4951782;28;20297;-82
2021/06/17 10:14:10;;;;;;;5.30;4.90;;;36.30;75.80;;;;;;4953338;28;20303;-82
2021/06/17 10:16:39;;;;;;;5.00;4.70;;;36.40;72.70;;;;;;4940569;28;20219;-82
2021/06/17 10:19:09;;;;;;;5.45;5.05;;;36.40;70.40;;;;;;4953597;28;20230;-82
2021/06/17 10:21:44;;;;;;;6.85;5.00;;;36.40;70.10;;;;;;4949954;28;20199;-81
2021/06/17 10:24:19;;;;;;;5.45;5.00;;;36.30;69.40;;;;;;4955584;28;20677;-82
2021/06/17 10:26:49;;;;;;;5.63;5.18;;;35.90;69.50;;;;;;4951627;28;20226;-82
2021/06/17 10:29:36;;;;;;;5.40;4.95;;;36.00;69.30;;;;;;4948942;29;20203;-81
2021/06/17 10:32:05;;;;;;;4.97;4.30;;;35.60;68.10;;;;;;4946764;29;20206;-81
2021/06/17 10:34:41;;;;;;;5.10;4.80;;;35.20;69.30;;;;;;4946168;28;20596;-81
2021/06/17 10:37:13;;;;;;;4.90;4.57;;;35.60;67.10;;;;;;4941948;28;20225;-81
2021/06/17 10:39:47;;;;;;;5.30;4.90;;;35.90;66.60;;;;;;4939466;29;20210;-82
2021/06/17 10:42:29;;;;;;;4.93;4.53;;;35.90;66.80;;;;;;4950691;29;20225;-81
2021/06/17 10:45:00;;;;;;;5.93;4.85;;;35.80;67.10;;;;;;4950514;28;20245;-81
2021/06/17 10:47:57;;;;;;;5.20;4.80;;;35.80;65.60;;;;;;4951707;28;20223;-81
2021/06/17 10:50:55;;;;;;;5.80;5.30;;;35.60;63.90;;;;;;4950021;28;20203;-81
2021/06/17 10:53:40;;;;;;;5.68;5.20;;;35.50;68.30;;;;;;4953136;28;20618;-82
2021/06/17 10:56:10;;;;;;;5.30;4.90;;;35.40;69.90;;;;;;4949536;28;20234;-81
2021/06/17 10:59:06;;;;;;;5.95;4.93;;;35.30;69.80;;;;;;4955107;28;20821;-81
2021/06/17 11:01:36;;;;;;;5.53;5.13;;;35.10;69.40;;;;;;4951615;28;20200;-81
2021/06/17 11:04:10;;;;;;;5.25;4.85;;;35.20;70.10;;;;;;4948394;28;20202;-82
2021/06/17 11:07:09;;;;;;;6.03;5.40;;;35.10;68.90;;;;;;4938278;29;20694;-80
2021/06/17 11:09:46;;;;;;;5.70;5.18;;;34.90;68.70;;;;;;4953716;29;20300;-81
2021/06/17 11:12:58;;;;;;;5.45;5.05;;;34.50;68.40;;;;;;4936485;29;20187;-81
2021/06/17 11:15:40;;;;;;;5.27;4.83;;;34.30;69.70;;;;;;4951730;28;20222;-81
2021/06/17 11:18:07;;;;;;;4.82;4.53;;;34.30;66.30;;;;;;4969065;23;20226;-76
2021/06/17 11:20:42;;;;;;;5.32;4.93;;;34.40;67.70;;;;;;4961456;28;20210;-76
2021/06/17 11:23:10;;;;;;;5.43;5.05;;;34.50;69.00;;;;;;4954340;28;20206;-76
2021/06/17 11:25:40;;;;;;;6.20;5.77;;;34.20;65.60;;;;;;4970177;28;20198;-76
2021/06/17 11:28:09;;;;;;;5.53;5.13;;;34.20;68.20;;;;;;4947124;29;20745;-76
2021/06/17 11:31:01;;;;;;;5.40;5.00;;;33.90;66.00;;;;;;4941220;28;20618;-77
2021/06/17 11:33:44;;;;;;;5.50;5.17;;;33.80;64.00;;;;;;4941992;29;20199;-77
2021/06/17 11:36:16;;;;;;;5.40;5.00;;;33.70;66.60;;;;;;4942880;28;20215;-76
2021/06/17 11:38:43;;;;;;;5.67;5.20;;;33.80;68.70;;;;;;4945102;29;20190;-76
2021/06/17 11:41:20;;;;;;;6.33;5.30;;;34.00;69.10;;;;;;4947422;29;20202;-77
2021/06/17 11:43:56;;;;;;;5.50;5.10;;;33.90;67.00;;;;;;4943114;29;20203;-76
2021/06/17 11:46:35;;;;;;;5.70;5.30;;;33.70;67.50;;;;;;4941983;28;20250;-76
2021/06/17 11:49:05;;;;;;;5.73;5.20;;;33.60;69.90;;;;;;4943681;29;20666;-76
2021/06/17 11:51:42;;;;;;;5.47;5.13;;;33.60;69.30;;;;;;4941996;29;20206;-76
2021/06/17 11:54:09;;;;;;;5.90;5.40;;;33.50;69.00;;;;;;4941984;28;20203;-76
2021/06/17 11:56:37;;;;;;;6.53;6.13;;;33.40;68.70;;;;;;4944256;29;20211;-76
2021/06/17 11:59:26;;;;;;;6.90;6.40;;;33.50;70.60;;;;;;4942275;29;20211;-76
2021/06/17 12:02:13;;;;;;;6.67;6.07;;;33.50;70.80;;;;;;4936374;29;20286;-77
2021/06/17 12:04:45;;;;;;;6.10;5.70;;;33.50;71.30;;;;;;4945025;29;20187;-76
2021/06/17 12:07:12;;;;;;;6.43;6.03;;;33.40;69.50;;;;;;4941721;29;20238;-75
2021/06/17 12:09:39;;;;;;;8.20;6.50;;;33.30;70.00;;;;;;4945500;29;20202;-76
2021/06/17 12:12:20;;;;;;;7.57;6.87;;;33.20;69.50;;;;;;4942289;29;20591;-76
2021/06/17 12:14:48;;;;;;;7.20;6.60;;;33.00;71.20;;;;;;4946714;29;20221;-77
2021/06/17 12:17:30;;;;;;;6.90;6.40;;;32.70;70.60;;;;;;4937856;29;20239;-77
2021/06/17 12:19:59;;;;;;;7.23;6.63;;;32.80;69.20;;;;;;4933129;29;20202;-76
2021/06/17 12:22:26;;;;;;;7.63;7.03;;;32.60;71.50;;;;;;4939376;29;20199;-76
2021/06/17 12:24:54;;;;;;;7.67;7.17;;;32.70;73.30;;;;;;4942956;29;20198;-76
2021/06/17 12:27:23;;;;;;;8.10;7.50;;;32.60;72.20;;;;;;4942938;29;20306;-75
2021/06/17 12:29:49;;;;;;;7.93;7.23;;;32.60;70.90;;;;;;4941498;29;20203;-76
2021/06/17 12:32:32;;;;;;;7.17;6.67;;;32.50;72.60;;;;;;4942743;29;20207;-76
2021/06/17 12:35:10;;;;;;;7.27;6.63;;;32.40;71.80;;;;;;4932710;29;20226;-76
2021/06/17 12:37:54;;;;;;;7.90;7.30;;;32.40;73.40;;;;;;4943968;28;20232;-76
2021/06/17 12:40:29;;;;;;;7.37;6.80;;;32.40;75.20;;;;;;4946510;29;20565;-75
2021/06/17 12:43:05;;;;;;;7.27;6.77;;;32.40;75.50;;;;;;4933760;29;20205;-76
2021/06/17 12:45:32;;;;;;;7.53;7.00;;;32.20;75.70;;;;;;4938970;28;20599;-76
2021/06/17 12:48:06;;;;;;;7.80;7.20;;;32.20;76.60;;;;;;4941078;28;20279;-75
2021/06/17 12:53:18;;;;;;;7.53;6.93;;;32.40;78.50;;;;;;4945091;28;20262;-76
2021/06/17 12:55:47;;;;;;;7.70;7.20;;;32.60;79.40;;;;;;4942839;29;20226;-76
2021/06/17 12:58:15;;;;;;;7.63;7.03;;;32.50;75.30;;;;;;4942352;29;20235;-76
2021/06/17 13:00:55;;;;;;;7.37;6.87;;;32.40;77.30;;;;;;4946184;29;20204;-76
2021/06/17 13:03:24;;;;;;;8.10;7.40;;;32.40;76.50;;;;;;4944041;29;20285;-76
2021/06/17 13:05:52;;;;;;;8.03;7.40;;;32.30;75.20;;;;;;4941188;29;20194;-76
2021/06/17 13:08:21;;;;;;;7.70;7.00;;;32.20;75.00;;;;;;4938005;29;20226;-76
2021/06/17 13:10:50;;;;;;;7.90;7.30;;;32.10;74.20;;;;;;4942275;29;20219;-75
2021/06/17 13:13:20;;;;;;;7.40;6.90;;;32.10;76.50;;;;;;4945004;28;20693;-76
2021/06/17 13:15:49;;;;;;;8.07;7.27;;;32.20;77.60;;;;;;4942222;29;20207;-76
2021/06/17 13:18:17;;;;;;;7.40;6.90;;;32.10;75.30;;;;;;4941180;29;20234;-76
2021/06/17 13:20:45;;;;;;;7.50;6.90;;;32.00;75.70;;;;;;4937531;29;20596;-76
2021/06/17 13:23:16;;;;;;;8.13;7.43;;;32.10;78.40;;;;;;4945625;28;20213;-76
2021/06/17 13:25:44;;;;;;;7.80;7.20;;;32.00;78.50;;;;;;4940979;29;20230;-76
2021/06/17 13:28:35;;;;;;;7.57;6.97;;;32.00;77.40;;;;;;4940655;29;20282;-76
2021/06/17 13:31:04;;;;;;;7.63;7.03;;;32.10;79.30;;;;;;4936303;29;20198;-76
2021/06/17 13:33:31;;;;;;;7.97;7.40;;;32.10;80.00;;;;;;4943509;29;20198;-76
2021/06/17 13:35:58;;;;;;;7.70;7.00;;;32.10;77.30;;;;;;4939605;29;20708;-75
2021/06/17 13:38:25;;;;;;;7.60;6.90;;;32.00;78.30;;;;;;4936269;29;20227;-76
2021/06/17 13:40:54;;;;;;;7.30;6.70;;;32.00;79.50;;;;;;4939918;29;20572;-76
2021/06/17 13:43:21;;;;;;;11.73;6.90;;;32.00;78.70;;;;;;4942119;29;20230;-76
2021/06/17 13:45:50;;;;;;;7.13;6.53;;;31.90;77.40;;;;;;4940581;29;20577;-76
2021/06/17 13:48:17;;;;;;;8.07;7.47;;;32.00;77.70;;;;;;4933986;29;20230;-76